Time;durP1;ratioP1;P1;durP2;ratioP2;P2;SDS_P1;SDS_P2;PMS_P1;PMS_P2;Temp;Humidity;BMP_temperature;BMP_pressure;BME280_temperature;BME280_humidity;BME280_pressure;Samples;Min_cycle;Max_cycle;Signal;HPM_P1;HPM_P2
2021/11/11 00:00:57;;;;;;;;;;;2.10;44.80;;;;;;4388359;32;19985;-37
2021/11/11 00:03:23;;;;;;;;;;;2.10;44.80;;;;;;4388746;32;19981;-38
2021/11/11 00:05:50;;;;;;;;;;;2.00;44.70;;;;;;4388792;32;20053;-37
2021/11/11 00:08:16;;;;;;;;;;;1.90;44.60;;;;;;4388515;32;20393;-37
2021/11/11 00:10:42;;;;;;;;;;;1.90;44.80;;;;;;4388495;32;19962;-36
2021/11/11 00:13:09;;;;;;;;;;;1.80;44.80;;;;;;4388413;32;19958;-36
2021/11/11 00:15:35;;;;;;;;;;;1.80;44.80;;;;;;4389231;32;19981;-37
2021/11/11 00:18:01;;;;;;;;;;;1.70;44.80;;;;;;4388706;32;19978;-37
2021/11/11 00:20:28;;;;;;;;;;;1.70;44.90;;;;;;4388953;32;20482;-38
2021/11/11 00:22:54;;;;;;;;;;;1.60;44.80;;;;;;4388780;32;19966;-36
2021/11/11 00:25:22;;;;;;;;;;;1.60;44.90;;;;;;4388471;32;19964;-38
2021/11/11 00:27:48;;;;;;;;;;;1.50;45.60;;;;;;4388527;32;20406;-37
2021/11/11 00:30:16;;;;;;;;;;;1.50;45.00;;;;;;4388529;32;19969;-37
2021/11/11 00:32:43;;;;;;;;;;;1.40;45.00;;;;;;4388807;32;19985;-37
2021/11/11 00:35:14;;;;;;;;;;;1.40;45.10;;;;;;4388920;32;19981;-36
2021/11/11 00:37:41;;;;;;;;;;;1.40;45.10;;;;;;4388428;32;19961;-35
2021/11/11 00:40:08;;;;;;;;;;;1.40;45.30;;;;;;4374700;32;20038;-37
2021/11/11 00:42:34;;;;;;;;;;;1.30;45.30;;;;;;4388486;32;19973;-37
2021/11/11 00:45:00;;;;;;;;;;;1.30;45.30;;;;;;4385619;32;19976;-37
2021/11/11 00:47:27;;;;;;;;;;;1.30;45.30;;;;;;4373436;32;19977;-38
2021/11/11 00:49:53;;;;;;;;;;;1.20;45.30;;;;;;4373495;32;19965;-37
2021/11/11 00:52:19;;;;;;;;;;;1.20;45.30;;;;;;4373334;32;19975;-38
2021/11/11 00:54:46;;;;;;;;;;;1.20;45.30;;;;;;4340601;33;19990;-37
2021/11/11 00:57:12;;;;;;;;;;;1.10;45.30;;;;;;4340887;33;20496;-37
2021/11/11 00:59:41;;;;;;;;;;;1.10;45.30;;;;;;4341355;33;20463;-38
2021/11/11 01:02:08;;;;;;;;;;;1.00;45.30;;;;;;4341381;33;20064;-38
2021/11/11 01:04:36;;;;;;;;;;;1.00;45.30;;;;;;4340698;33;19982;-37
2021/11/11 01:07:03;;;;;;;;;;;0.90;45.30;;;;;;4340925;33;20641;-38
2021/11/11 01:09:30;;;;;;;;;;;0.90;45.40;;;;;;4340901;33;19959;-38
2021/11/11 01:11:57;;;;;;;;;;;0.90;45.50;;;;;;4341174;32;20008;-37
2021/11/11 01:14:23;;;;;;;;;;;0.80;45.40;;;;;;4343896;33;20450;-37
2021/11/11 01:16:49;;;;;;;;;;;0.80;45.50;;;;;;4344049;33;20005;-37
2021/11/11 01:19:16;;;;;;;;;;;0.80;45.60;;;;;;4343809;33;20446;-37
2021/11/11 01:21:42;;;;;;;;;;;0.70;45.60;;;;;;4331188;33;20043;-35
2021/11/11 01:24:08;;;;;;;;;;;0.70;45.70;;;;;;4344026;33;20177;-38
2021/11/11 01:26:34;;;;;;;;;;;0.70;45.80;;;;;;4370374;32;19955;-37
2021/11/11 01:29:01;;;;;;;;;;;0.60;45.70;;;;;;4376088;32;19966;-38
2021/11/11 01:31:27;;;;;;;;;;;0.60;45.80;;;;;;4375940;32;19962;-39
2021/11/11 01:33:53;;;;;;;;;;;0.60;46.00;;;;;;4375835;32;19962;-38
2021/11/11 01:36:19;;;;;;;;;;;0.60;46.00;;;;;;4376084;32;20050;-38
2021/11/11 01:38:45;;;;;;;;;;;0.50;46.00;;;;;;4375885;32;20386;-38
2021/11/11 01:41:12;;;;;;;;;;;0.50;46.10;;;;;;4362129;32;19990;-38
2021/11/11 01:43:38;;;;;;;;;;;0.50;46.20;;;;;;4376152;32;19981;-37
2021/11/11 01:46:04;;;;;;;;;;;0.50;46.40;;;;;;4375891;32;20009;-39
2021/11/11 01:48:30;;;;;;;;;;;0.50;46.70;;;;;;4374135;32;19958;-38
2021/11/11 01:50:57;;;;;;;;;;;0.60;46.90;;;;;;4375623;32;19958;-38
2021/11/11 01:53:24;;;;;;;;;;;0.60;47.00;;;;;;4375718;32;19970;-38
2021/11/11 01:55:50;;;;;;;;;;;0.60;47.00;;;;;;4375745;32;20486;-37
2021/11/11 01:58:17;;;;;;;;;;;0.60;47.00;;;;;;4375692;32;20429;-38
2021/11/11 02:00:54;;;;;;;;;;;0.60;47.10;;;;;;4375275;32;19973;-37
2021/11/11 02:03:21;;;;;;;;;;;0.60;47.40;;;;;;4375900;32;19974;-38
2021/11/11 02:05:48;;;;;;;;;;;0.60;47.90;;;;;;4375480;32;19978;-38
2021/11/11 02:08:14;;;;;;;;;;;0.60;48.10;;;;;;4374199;32;19961;-36
2021/11/11 02:10:40;;;;;;;;;;;0.60;48.40;;;;;;4375329;32;20005;-38
2021/11/11 02:13:07;;;;;;;;;;;0.70;48.60;;;;;;4375487;32;19969;-38
2021/11/11 02:15:34;;;;;;;;;;;0.70;49.00;;;;;;4375153;32;20041;-38
2021/11/11 02:18:00;;;;;;;;;;;0.70;49.10;;;;;;4375100;32;19970;-37
2021/11/11 02:20:28;;;;;;;;;;;0.70;49.20;;;;;;4357769;32;20048;-38
2021/11/11 02:22:55;;;;;;;;;;;0.70;49.30;;;;;;4358013;32;19994;-38
2021/11/11 02:25:22;;;;;;;;;;;0.80;49.40;;;;;;4356793;32;19970;-38
2021/11/11 02:27:55;;;;;;;;;;;0.80;49.40;;;;;;4345451;32;19981;-37
2021/11/11 02:30:23;;;;;;;;;;;0.80;49.40;;;;;;4357467;32;19985;-38
2021/11/11 02:32:49;;;;;;;;;;;0.80;49.60;;;;;;4358008;32;19970;-38
2021/11/11 02:35:17;;;;;;;;;;;0.90;49.60;;;;;;4345693;32;20044;-37
2021/11/11 02:37:43;;;;;;;;;;;0.90;49.70;;;;;;4357407;32;19963;-37
2021/11/11 02:40:22;;;;;;;;;;;0.90;49.60;;;;;;4357358;32;19966;-39
2021/11/11 02:42:48;;;;;;;;;;;0.90;49.60;;;;;;4357720;32;19978;-37
2021/11/11 02:45:17;;;;;;;;;;;0.90;49.60;;;;;;4340588;33;19985;-37
2021/11/11 02:47:43;;;;;;;;;;;1.00;49.70;;;;;;4342547;33;20009;-38
2021/11/11 02:50:10;;;;;;;;;;;0.90;49.80;;;;;;4342829;33;20102;-38
2021/11/11 02:52:36;;;;;;;;;;;0.90;49.90;;;;;;4330390;33;20043;-37
2021/11/11 02:55:03;;;;;;;;;;;0.90;50.00;;;;;;4342689;33;19985;-38
2021/11/11 02:57:31;;;;;;;;;;;0.90;50.00;;;;;;4353569;32;20521;-37
2021/11/11 03:00:00;;;;;;;;;;;0.90;50.00;;;;;;4360771;32;19977;-39
2021/11/11 03:02:31;;;;;;;;;;;1.00;49.90;;;;;;4361030;32;19994;-39
2021/11/11 03:04:58;;;;;;;;;;;1.00;49.80;;;;;;4374548;32;19970;-38
2021/11/11 03:07:25;;;;;;;;;;;1.10;49.70;;;;;;4360790;32;19980;-39
2021/11/11 03:09:51;;;;;;;;;;;1.10;49.50;;;;;;4360068;32;19963;-38
2021/11/11 03:12:18;;;;;;;;;;;1.20;49.40;;;;;;4374735;32;20092;-37
2021/11/11 03:14:45;;;;;;;;;;;1.20;49.30;;;;;;4361079;32;20453;-38
2021/11/11 03:17:11;;;;;;;;;;;1.20;49.20;;;;;;4374355;32;19994;-39
2021/11/11 03:19:38;;;;;;;;;;;1.20;49.20;;;;;;4374632;32;19968;-38
2021/11/11 03:22:06;;;;;;;;;;;1.20;49.20;;;;;;4374536;32;19968;-38
2021/11/11 03:24:33;;;;;;;;;;;1.20;49.30;;;;;;4374169;32;19981;-37
2021/11/11 03:26:59;;;;;;;;;;;1.30;49.20;;;;;;4374335;32;20004;-40
2021/11/11 03:29:25;;;;;;;;;;;1.30;49.10;;;;;;4374188;32;19990;-38
2021/11/11 03:31:52;;;;;;;;;;;1.30;48.90;;;;;;4373972;32;19962;-38
2021/11/11 03:34:19;;;;;;;;;;;1.30;48.80;;;;;;4374294;32;19959;-39
2021/11/11 03:36:46;;;;;;;;;;;1.30;48.70;;;;;;4360252;32;20319;-38
2021/11/11 03:39:14;;;;;;;;;;;1.30;48.50;;;;;;4374103;32;19985;-37
2021/11/11 03:41:40;;;;;;;;;;;1.40;48.40;;;;;;4373879;32;19986;-37
2021/11/11 03:44:07;;;;;;;;;;;1.30;48.40;;;;;;4373865;32;19988;-39
2021/11/11 03:46:33;;;;;;;;;;;1.40;48.50;;;;;;4360126;32;19985;-38
2021/11/11 03:48:59;;;;;;;;;;;1.40;48.40;;;;;;4372697;32;20396;-38
2021/11/11 03:51:25;;;;;;;;;;;1.40;48.30;;;;;;4373721;32;19958;-39
2021/11/11 03:53:52;;;;;;;;;;;1.40;48.30;;;;;;4373825;32;19963;-37
2021/11/11 03:56:18;;;;;;;;;;;1.40;48.30;;;;;;4373917;32;19969;-38
2021/11/11 03:58:46;;;;;;;;;;;1.40;48.40;;;;;;4373654;32;19970;-39
2021/11/11 04:01:12;;;;;;;;;;;1.40;49.30;;;;;;4373732;32;20061;-39
2021/11/11 04:03:38;;;;;;;;;;;1.30;49.90;;;;;;4373406;32;19961;-38
2021/11/11 04:06:05;;;;;;;;;;;1.30;50.50;;;;;;4373602;32;19980;-39
2021/11/11 04:08:31;;;;;;;;;;;1.30;50.80;;;;;;4373417;32;20588;-38
2021/11/11 04:10:58;;;;;;;;;;;1.20;51.20;;;;;;4373528;32;20045;-39
2021/11/11 04:13:24;;;;;;;;;;;1.20;51.60;;;;;;4373995;32;19967;-39
2021/11/11 04:15:50;;;;;;;;;;;1.20;52.00;;;;;;4374045;32;19972;-38
2021/11/11 04:18:16;;;;;;;;;;;1.20;52.00;;;;;;4359998;32;19974;-40
2021/11/11 04:20:43;;;;;;;;;;;1.20;51.90;;;;;;4373631;32;20414;-39
2021/11/11 04:23:09;;;;;;;;;;;1.30;51.90;;;;;;4359558;32;20054;-39
2021/11/11 04:28:13;;;;;;;;;;;1.40;51.90;;;;;;4373627;32;19969;-39
2021/11/11 04:30:41;;;;;;;;;;;1.40;52.10;;;;;;4373371;32;19958;-39
2021/11/11 04:33:09;;;;;;;;;;;1.40;52.20;;;;;;4374126;32;19964;-39
2021/11/11 04:35:35;;;;;;;;;;;1.50;52.60;;;;;;4373630;32;20051;-39
2021/11/11 04:46:10;;;;;;;;;;;1.60;52.80;;;;;;4381564;32;19993;-36
2021/11/11 04:51:35;;;;;;;;;;;1.70;52.40;;;;;;4388271;32;20045;-38
2021/11/11 05:04:28;;;;;;;;;;;2.40;50.60;;;;;;4388307;32;19981;-38
2021/11/11 05:06:54;;;;;;;;;;;2.50;50.00;;;;;;4374201;32;20058;-40
2021/11/11 05:09:21;;;;;;;;;;;2.60;49.70;;;;;;4370564;32;19973;-39
2021/11/11 05:11:47;;;;;;;;;;;2.70;49.10;;;;;;4370508;32;20507;-38
2021/11/11 05:14:14;;;;;;;;;;;2.80;48.90;;;;;;4370663;32;20047;-38
2021/11/11 05:16:40;;;;;;;;;;;2.90;48.30;;;;;;4370370;32;19989;-38
2021/11/11 05:19:06;;;;;;;;;;;3.00;48.00;;;;;;4370508;32;19962;-37
2021/11/11 05:21:32;;;;;;;;;;;3.10;48.00;;;;;;4370576;32;19969;-37
2021/11/11 05:23:59;;;;;;;;;;;3.20;47.40;;;;;;4370535;32;19982;-37
2021/11/11 05:26:25;;;;;;;;;;;3.30;47.00;;;;;;4370280;32;20046;-37
2021/11/11 05:28:51;;;;;;;;;;;3.40;46.10;;;;;;4370792;32;20040;-38
2021/11/11 05:31:17;;;;;;;;;;;3.40;45.20;;;;;;4370483;32;20039;-38
2021/11/11 05:33:44;;;;;;;;;;;3.50;45.60;;;;;;4370413;32;20011;-37
2021/11/11 05:36:10;;;;;;;;;;;3.60;45.80;;;;;;4370494;32;19966;-37
2021/11/11 05:38:36;;;;;;;;;;;3.70;45.90;;;;;;4370119;32;20421;-37
2021/11/11 05:41:02;;;;;;;;;;;3.80;46.00;;;;;;4370534;32;19982;-37
2021/11/11 05:43:29;;;;;;;;;;;3.90;45.90;;;;;;4370174;32;20042;-38
2021/11/11 05:45:55;;;;;;;;;;;3.90;45.90;;;;;;4363926;32;20087;-38
2021/11/11 05:48:21;;;;;;;;;;;4.00;46.30;;;;;;4371570;32;19968;-37
2021/11/11 05:50:48;;;;;;;;;;;4.10;46.10;;;;;;4372981;32;20139;-36
2021/11/11 05:53:14;;;;;;;;;;;4.20;46.30;;;;;;4372432;32;20043;-37
2021/11/11 05:55:40;;;;;;;;;;;4.50;46.60;;;;;;4358460;32;19981;-37
2021/11/11 05:58:06;;;;;;;;;;;4.80;46.50;;;;;;4359120;32;20390;-38
2021/11/11 06:00:33;;;;;;;;;;;5.00;45.20;;;;;;4374605;32;20061;-38
2021/11/11 06:02:59;;;;;;;;;;;5.10;44.40;;;;;;4374639;32;20495;-38
2021/11/11 06:05:26;;;;;;;;;;;5.20;44.00;;;;;;4375171;32;19962;-38
2021/11/11 06:07:53;;;;;;;;;;;5.30;43.80;;;;;;4373971;32;20017;-40
2021/11/11 06:10:19;;;;;;;;;;;5.40;43.90;;;;;;4375409;32;20403;-39
2021/11/11 06:12:45;;;;;;;;;;;5.60;44.20;;;;;;4375171;32;20449;-42
2021/11/11 06:15:11;;;;;;;;;;;5.80;44.10;;;;;;4374818;32;19954;-41
2021/11/11 06:17:38;;;;;;;;;;;6.00;43.50;;;;;;4375372;32;20001;-41
2021/11/11 06:20:15;;;;;;;;;;;6.30;43.10;;;;;;4375140;32;19961;-41
2021/11/11 06:22:45;;;;;;;;;;;6.50;42.20;;;;;;4375481;32;19974;-40
2021/11/11 06:25:11;;;;;;;;;;;6.70;41.90;;;;;;4374900;32;19969;-39
2021/11/11 06:27:38;;;;;;;;;;;6.90;41.40;;;;;;4375480;32;20401;-41
2021/11/11 06:30:05;;;;;;;;;;;7.00;40.30;;;;;;4373497;32;19973;-41
2021/11/11 06:32:31;;;;;;;;;;;7.10;39.40;;;;;;4374627;32;20430;-41
2021/11/11 06:34:58;;;;;;;;;;;6.90;38.40;;;;;;4374816;32;20029;-41
2021/11/11 06:37:24;;;;;;;;;;;6.80;38.80;;;;;;4374936;32;20098;-41
2021/11/11 06:39:50;;;;;;;;;;;6.80;39.40;;;;;;4373053;32;20114;-42
2021/11/11 06:42:16;;;;;;;;;;;6.80;39.30;;;;;;4374930;32;19981;-41
2021/11/11 06:44:46;;;;;;;;;;;6.80;39.40;;;;;;4375020;32;20371;-41
2021/11/11 06:47:12;;;;;;;;;;;6.80;38.30;;;;;;4374858;32;19962;-40
2021/11/11 06:49:39;;;;;;;;;;;6.70;38.50;;;;;;4374194;32;19997;-42
2021/11/11 06:52:05;;;;;;;;;;;6.80;39.50;;;;;;4375035;32;19977;-41
2021/11/11 06:54:32;;;;;;;;;;;6.80;38.40;;;;;;4374923;32;20001;-40
2021/11/11 06:56:58;;;;;;;;;;;6.80;38.00;;;;;;4375117;32;19996;-42
2021/11/11 06:59:24;;;;;;;;;;;6.90;38.20;;;;;;4374586;32;20419;-42
2021/11/11 07:01:51;;;;;;;;;;;7.00;37.70;;;;;;4374467;32;20462;-42
2021/11/11 07:04:17;;;;;;;;;;;7.00;37.40;;;;;;4374716;32;20061;-41
2021/11/11 07:06:43;;;;;;;;;;;6.90;37.30;;;;;;4374347;32;20579;-41
2021/11/11 07:09:09;;;;;;;;;;;7.00;38.10;;;;;;4375002;32;20066;-41
2021/11/11 07:11:36;;;;;;;;;;;7.20;38.10;;;;;;4374273;32;20409;-41
2021/11/11 07:14:02;;;;;;;;;;;7.30;37.70;;;;;;4374311;32;20450;-41
2021/11/11 07:16:28;;;;;;;;;;;7.50;37.80;;;;;;4374421;32;20038;-40
2021/11/11 07:18:55;;;;;;;;;;;7.70;36.90;;;;;;4374303;32;20406;-42
2021/11/11 07:21:21;;;;;;;;;;;7.60;36.40;;;;;;4374010;32;19973;-42
2021/11/11 07:23:47;;;;;;;;;;;7.50;36.40;;;;;;4374389;32;20406;-41
2021/11/11 07:26:13;;;;;;;;;;;7.50;37.10;;;;;;4383978;32;20101;-41
2021/11/11 07:28:40;;;;;;;;;;;7.50;37.10;;;;;;4389226;32;20366;-42
2021/11/11 07:31:06;;;;;;;;;;;7.50;36.60;;;;;;4389344;32;19976;-42
2021/11/11 07:33:32;;;;;;;;;;;7.30;36.00;;;;;;4389177;32;19968;-37
2021/11/11 07:36:02;;;;;;;;;;;7.10;36.70;;;;;;4374997;32;20443;-42
2021/11/11 07:38:28;;;;;;;;;;;7.00;37.20;;;;;;4389621;32;20011;-42
2021/11/11 07:40:54;;;;;;;;;;;6.90;36.90;;;;;;4388844;32;19983;-42
2021/11/11 07:43:21;;;;;;;;;;;6.80;36.80;;;;;;4388843;32;20401;-42
2021/11/11 07:45:47;;;;;;;;;;;6.60;37.00;;;;;;4381224;32;20395;-42
2021/11/11 07:48:13;;;;;;;;;;;6.50;37.30;;;;;;4359672;32;20037;-41
2021/11/11 07:50:41;;;;;;;;;;;6.40;37.80;;;;;;4373882;32;19965;-41
2021/11/11 07:53:10;;;;;;;;;;;6.30;38.10;;;;;;4373993;32;19974;-40
2021/11/11 07:55:39;;;;;;;;;;;6.20;38.40;;;;;;4373718;32;20053;-41
2021/11/11 07:58:06;;;;;;;;;;;6.20;38.70;;;;;;4374047;32;19966;-40
2021/11/11 08:00:32;;;;;;;;;;;6.30;38.60;;;;;;4373964;32;20391;-41
2021/11/11 08:02:58;;;;;;;;;;;6.30;38.10;;;;;;4359716;32;19978;-41
2021/11/11 08:05:25;;;;;;;;;;;6.30;38.30;;;;;;4373372;32;20057;-42
2021/11/11 08:07:51;;;;;;;;;;;6.30;38.00;;;;;;4373806;32;20406;-41
2021/11/11 08:10:19;;;;;;;;;;;6.30;38.10;;;;;;4373133;32;20439;-41
2021/11/11 08:12:45;;;;;;;;;;;6.40;37.60;;;;;;4373585;32;20010;-44
2021/11/11 08:15:11;;;;;;;;;;;6.40;37.40;;;;;;4373130;32;19974;-41
2021/11/11 08:17:38;;;;;;;;;;;6.40;37.50;;;;;;4373684;32;20037;-42
2021/11/11 08:20:05;;;;;;;;;;;6.50;37.70;;;;;;4373356;32;19985;-41
2021/11/11 08:22:31;;;;;;;;;;;6.50;37.10;;;;;;4372846;32;19994;-41
2021/11/11 08:24:58;;;;;;;;;;;6.50;36.30;;;;;;4373082;32;20407;-41
2021/11/11 08:27:24;;;;;;;;;;;6.40;36.60;;;;;;4373548;32;19973;-42
2021/11/11 08:29:51;;;;;;;;;;;6.40;36.60;;;;;;4373548;32;19970;-42
2021/11/11 08:32:17;;;;;;;;;;;6.30;36.70;;;;;;4373734;32;19966;-41
2021/11/11 08:34:44;;;;;;;;;;;6.20;36.60;;;;;;4373300;32;19989;-42
2021/11/11 08:37:10;;;;;;;;;;;6.20;37.20;;;;;;4373416;32;20379;-41
2021/11/11 08:39:37;;;;;;;;;;;6.30;36.70;;;;;;4373325;32;19966;-40
2021/11/11 08:42:04;;;;;;;;;;;6.40;36.70;;;;;;4373189;32;19986;-41
2021/11/11 08:44:30;;;;;;;;;;;6.50;36.60;;;;;;4373195;32;20454;-41
2021/11/11 08:46:57;;;;;;;;;;;6.50;36.10;;;;;;4371607;32;20451;-40
2021/11/11 08:49:23;;;;;;;;;;;6.60;36.60;;;;;;4371416;32;20452;-39
2021/11/11 08:51:50;;;;;;;;;;;6.80;36.50;;;;;;4372785;32;19963;-42
2021/11/11 08:54:18;;;;;;;;;;;6.90;36.20;;;;;;4373390;32;19970;-42
2021/11/11 08:56:51;;;;;;;;;;;7.00;36.20;;;;;;4373301;32;19962;-40
2021/11/11 08:59:18;;;;;;;;;;;7.20;36.00;;;;;;4373192;32;20457;-40
2021/11/11 09:01:45;;;;;;;;;;;7.30;35.80;;;;;;4373759;32;19997;-42
2021/11/11 09:04:13;;;;;;;;;;;7.50;35.70;;;;;;4373003;32;20047;-41
2021/11/11 09:06:41;;;;;;;;;;;7.70;35.10;;;;;;4372687;32;20433;-41
2021/11/11 09:09:07;;;;;;;;;;;7.80;34.40;;;;;;4373223;32;20069;-41
2021/11/11 09:11:33;;;;;;;;;;;7.90;34.80;;;;;;4372968;32;20591;-41
2021/11/11 09:14:00;;;;;;;;;;;8.00;34.70;;;;;;4373341;32;19973;-41
2021/11/11 09:16:26;;;;;;;;;;;8.10;34.70;;;;;;4357586;32;19981;-41
2021/11/11 09:18:52;;;;;;;;;;;8.30;34.70;;;;;;4370063;32;20066;-41
2021/11/11 09:21:19;;;;;;;;;;;8.60;34.20;;;;;;4358021;32;19981;-41
2021/11/11 09:23:47;;;;;;;;;;;8.80;33.60;;;;;;4370275;32;20060;-42
2021/11/11 09:26:13;;;;;;;;;;;8.80;33.00;;;;;;4369920;32;19990;-41
2021/11/11 09:28:40;;;;;;;;;;;8.70;32.80;;;;;;4370064;32;19976;-38
2021/11/11 09:31:08;;;;;;;;;;;8.70;32.80;;;;;;4370250;32;20055;-43
2021/11/11 09:33:35;;;;;;;;;;;8.70;32.70;;;;;;4371510;32;20504;-42
2021/11/11 09:36:01;;;;;;;;;;;8.70;32.90;;;;;;4373001;32;19970;-41
2021/11/11 09:38:27;;;;;;;;;;;8.70;33.20;;;;;;4373114;32;19970;-41
2021/11/11 09:40:53;;;;;;;;;;;8.90;32.80;;;;;;4373007;32;19963;-41
2021/11/11 09:43:20;;;;;;;;;;;9.00;32.60;;;;;;4373433;32;19978;-41
2021/11/11 09:45:47;;;;;;;;;;;9.00;32.30;;;;;;4364678;32;20500;-42
2021/11/11 09:48:14;;;;;;;;;;;9.00;32.50;;;;;;4358189;32;19967;-42
2021/11/11 09:50:40;;;;;;;;;;;9.10;32.70;;;;;;4357551;32;19972;-40
2021/11/11 09:53:11;;;;;;;;;;;9.20;32.80;;;;;;4361629;32;19962;-42
2021/11/11 09:58:35;;;;;;;;;;;9.40;33.00;;;;;;4363475;32;19974;-42
2021/11/11 10:01:05;;;;;;;;;;;9.60;33.00;;;;;;4375695;32;20029;-42
2021/11/11 10:03:33;;;;;;;;;;;9.60;32.90;;;;;;4375381;32;19974;-42
2021/11/11 10:05:59;;;;;;;;;;;9.70;33.10;;;;;;4375007;32;19985;-42
2021/11/11 10:08:40;;;;;;;;;;;9.80;33.30;;;;;;4375286;32;19973;-41
2021/11/11 10:11:33;;;;;;;;;;;9.80;33.30;;;;;;4375046;32;20051;-41
2021/11/11 10:14:16;;;;;;;;;;;9.80;33.20;;;;;;4374833;32;19997;-41
2021/11/11 10:16:56;;;;;;;;;;;9.60;33.00;;;;;;4374794;32;20378;-40
2021/11/11 10:19:23;;;;;;;;;;;9.40;33.10;;;;;;4375119;32;19966;-41
2021/11/11 10:22:05;;;;;;;;;;;9.20;33.30;;;;;;4374969;32;20430;-42
2021/11/11 10:24:33;;;;;;;;;;;8.90;33.60;;;;;;4374994;32;19981;-41
2021/11/11 10:27:31;;;;;;;;;;;8.70;33.80;;;;;;4374897;32;19958;-42
2021/11/11 10:30:09;;;;;;;;;;;8.50;33.50;;;;;;4375269;32;19959;-46
2021/11/11 10:32:38;;;;;;;;;;;8.20;33.90;;;;;;4375109;32;20054;-41
2021/11/11 10:35:17;;;;;;;;;;;8.00;35.10;;;;;;4375196;32;20057;-42
2021/11/11 10:37:54;;;;;;;;;;;7.90;35.70;;;;;;4374984;32;19981;-38
2021/11/11 10:40:25;;;;;;;;;;;7.70;36.60;;;;;;4374288;32;20071;-41
2021/11/11 10:42:54;;;;;;;;;;;7.60;37.30;;;;;;4374961;32;19962;-41
2021/11/11 10:45:24;;;;;;;;;;;7.40;37.90;;;;;;4374013;32;20057;-40
2021/11/11 10:47:52;;;;;;;;;;;7.20;38.40;;;;;;4375048;32;19994;-41
2021/11/11 10:50:29;;;;;;;;;;;7.00;38.80;;;;;;4374603;32;19980;-41
2021/11/11 10:52:57;;;;;;;;;;;6.80;39.40;;;;;;4374461;32;19966;-41
2021/11/11 10:55:30;;;;;;;;;;;6.70;39.70;;;;;;4372883;32;20038;-41
2021/11/11 10:58:05;;;;;;;;;;;6.60;39.90;;;;;;4374678;32;20442;-42
2021/11/11 11:00:41;;;;;;;;;;;6.50;40.20;;;;;;4374435;32;20119;-40
2021/11/11 11:03:17;;;;;;;;;;;6.40;40.50;;;;;;4374292;32;20488;-41
2021/11/11 11:05:55;;;;;;;;;;;6.30;40.60;;;;;;4374739;32;19981;-40
2021/11/11 11:08:29;;;;;;;;;;;6.20;41.10;;;;;;4375135;32;20406;-41
2021/11/11 11:11:02;;;;;;;;;;;6.10;41.30;;;;;;4374345;32;19994;-40
2021/11/11 11:13:35;;;;;;;;;;;5.90;41.70;;;;;;4374434;32;20048;-40
2021/11/11 11:16:06;;;;;;;;;;;5.80;42.20;;;;;;4374499;32;19970;-41
2021/11/11 11:18:41;;;;;;;;;;;5.70;42.50;;;;;;4373901;32;20037;-42
2021/11/11 11:21:11;;;;;;;;;;;5.60;42.70;;;;;;4374249;32;19958;-41
2021/11/11 11:23:42;;;;;;;;;;;5.60;42.70;;;;;;4374637;32;19970;-41
2021/11/11 11:26:23;;;;;;;;;;;5.60;42.50;;;;;;4383908;32;19962;-41
2021/11/11 11:29:01;;;;;;;;;;;5.50;42.20;;;;;;4389269;32;20406;-40
2021/11/11 11:31:32;;;;;;;;;;;5.50;42.40;;;;;;4388883;32;19965;-41
2021/11/11 11:33:58;;;;;;;;;;;5.50;42.50;;;;;;4389427;32;20406;-41
2021/11/11 11:36:35;;;;;;;;;;;5.40;42.70;;;;;;4389337;32;20426;-39
2021/11/11 11:39:02;;;;;;;;;;;5.40;43.00;;;;;;4389468;32;19966;-42
2021/11/11 11:41:39;;;;;;;;;;;5.40;43.40;;;;;;4389383;32;19954;-41
2021/11/11 11:44:24;;;;;;;;;;;5.40;43.60;;;;;;4388722;32;19972;-40
2021/11/11 11:47:11;;;;;;;;;;;5.30;44.30;;;;;;4373776;32;20407;-40
2021/11/11 11:49:38;;;;;;;;;;;5.20;44.20;;;;;;4373801;32;20020;-42
2021/11/11 11:52:05;;;;;;;;;;;5.20;44.50;;;;;;4373766;32;20366;-41
2021/11/11 11:54:41;;;;;;;;;;;5.20;44.60;;;;;;4373917;32;19982;-42
2021/11/11 11:57:18;;;;;;;;;;;5.10;44.70;;;;;;4360679;32;20000;-41
2021/11/11 11:59:49;;;;;;;;;;;5.10;44.80;;;;;;4373449;32;20613;-41
2021/11/11 12:02:30;;;;;;;;;;;5.10;45.00;;;;;;4373708;32;19989;-41
2021/11/11 12:05:08;;;;;;;;;;;5.10;44.80;;;;;;4370739;32;19986;-41
2021/11/11 12:39:59;;;;;;;;;;;5.10;46.60;;;;;;4385117;32;19985;-40
2021/11/11 12:42:38;;;;;;;;;;;5.10;46.90;;;;;;4379467;32;19970;-41
2021/11/11 12:45:30;;;;;;;;;;;5.10;47.00;;;;;;4372983;32;20142;-42
2021/11/11 12:48:05;;;;;;;;;;;5.10;47.20;;;;;;4372994;32;19966;-41
2021/11/11 12:50:45;;;;;;;;;;;5.10;47.00;;;;;;4372876;32;19994;-41
2021/11/11 12:53:15;;;;;;;;;;;5.00;47.10;;;;;;4372862;32;20100;-39
2021/11/11 12:55:46;;;;;;;;;;;5.00;47.50;;;;;;4372633;32;20520;-41
2021/11/11 12:58:14;;;;;;;;;;;5.00;47.40;;;;;;4372844;32;19973;-40
2021/11/11 13:00:46;;;;;;;;;;;4.90;47.50;;;;;;4372301;32;20450;-41
2021/11/11 13:03:13;;;;;;;;;;;4.90;47.60;;;;;;4372478;32;20002;-40
2021/11/11 13:05:56;;;;;;;;;;;4.90;48.20;;;;;;4372891;32;20042;-41
2021/11/11 13:08:55;;;;;;;;;;;4.90;47.70;;;;;;4373422;32;19954;-40
2021/11/11 13:11:32;;;;;;;;;;;4.90;47.50;;;;;;4375726;32;19965;-39
2021/11/11 13:14:20;;;;;;;;;;;4.90;47.80;;;;;;4362339;32;19970;-41
2021/11/11 13:16:59;;;;;;;;;;;4.90;48.00;;;;;;4375487;32;20541;-40
2021/11/11 13:19:45;;;;;;;;;;;4.90;48.10;;;;;;4375643;32;19970;-40
2021/11/11 13:22:43;;;;;;;;;;;4.80;47.90;;;;;;4375205;32;19970;-40
2021/11/11 13:25:29;;;;;;;;;;;4.80;48.20;;;;;;4373167;32;19972;-41
2021/11/11 15:19:03;;;;;;;;;;;5.40;46.60;;;;;;4373879;32;20034;-41
2021/11/11 16:22:26;;;;;;;;;;;5.90;44.20;;;;;;4372950;32;20355;-40
2021/11/11 16:27:39;;;;;;;;;;;5.90;43.80;;;;;;4348481;32;19965;-43
2021/11/11 16:30:17;;;;;;;;;;;5.90;43.90;;;;;;4372897;32;20382;-40
2021/11/11 16:32:44;;;;;;;;;;;5.90;44.10;;;;;;4358810;32;19966;-39
2021/11/11 16:35:12;;;;;;;;;;;5.80;43.60;;;;;;4372918;32;19966;-42
2021/11/11 16:37:38;;;;;;;;;;;5.90;43.90;;;;;;4373124;32;19966;-39
2021/11/11 16:40:06;;;;;;;;;;;5.90;43.90;;;;;;4372653;32;19962;-40
2021/11/11 16:42:32;;;;;;;;;;;5.90;44.00;;;;;;4372424;32;19986;-42
2021/11/11 16:44:58;;;;;;;;;;;5.90;44.10;;;;;;4372305;32;19965;-41
2021/11/11 16:47:24;;;;;;;;;;;6.00;44.40;;;;;;4372565;32;20090;-40
2021/11/11 16:49:51;;;;;;;;;;;6.00;44.60;;;;;;4372725;32;19981;-41
2021/11/11 16:52:17;;;;;;;;;;;6.00;44.30;;;;;;4372735;32;20047;-40
2021/11/11 16:54:43;;;;;;;;;;;6.00;44.80;;;;;;4372869;32;20430;-40
2021/11/11 16:57:10;;;;;;;;;;;6.00;45.20;;;;;;4372647;32;19965;-40
2021/11/11 16:59:36;;;;;;;;;;;6.00;45.50;;;;;;4372309;32;19986;-40
2021/11/11 17:02:02;;;;;;;;;;;6.00;46.10;;;;;;4382470;32;20050;-40
2021/11/11 17:04:29;;;;;;;;;;;5.90;47.00;;;;;;4387924;32;19961;-42
2021/11/11 17:06:55;;;;;;;;;;;5.80;47.80;;;;;;4388167;32;19989;-40
2021/11/11 17:09:21;;;;;;;;;;;5.80;48.00;;;;;;4387653;32;19962;-40
2021/11/11 17:11:47;;;;;;;;;;;5.70;48.40;;;;;;4373265;32;20082;-39
2021/11/11 17:14:14;;;;;;;;;;;5.60;48.40;;;;;;4387435;32;19962;-38
2021/11/11 17:16:40;;;;;;;;;;;5.60;48.60;;;;;;4387373;32;20403;-39
2021/11/11 17:19:07;;;;;;;;;;;5.60;48.70;;;;;;4373671;32;19973;-38
2021/11/11 17:21:34;;;;;;;;;;;5.60;48.40;;;;;;4387516;32;20491;-39
2021/11/11 17:24:08;;;;;;;;;;;5.60;48.70;;;;;;4354793;32;20064;-39
2021/11/11 17:26:45;;;;;;;;;;;5.60;48.20;;;;;;4362254;32;19966;-40
2021/11/11 17:29:13;;;;;;;;;;;5.60;48.20;;;;;;4370036;32;20070;-39
2021/11/11 17:31:39;;;;;;;;;;;5.60;47.70;;;;;;4369779;32;20453;-38
2021/11/11 17:34:06;;;;;;;;;;;5.60;47.70;;;;;;4340076;33;20018;-38
2021/11/11 17:36:32;;;;;;;;;;;5.70;47.50;;;;;;4340618;33;19999;-39
2021/11/11 17:38:58;;;;;;;;;;;5.70;47.20;;;;;;4340072;33;20120;-41
2021/11/11 17:41:25;;;;;;;;;;;5.70;47.10;;;;;;4340026;33;20498;-38
2021/11/11 17:43:52;;;;;;;;;;;5.70;47.20;;;;;;4340259;33;19981;-38
2021/11/11 17:46:21;;;;;;;;;;;5.80;46.80;;;;;;4339941;33;19982;-41
2021/11/11 17:48:54;;;;;;;;;;;5.80;46.60;;;;;;4339941;33;19991;-40
2021/11/11 17:53:55;;;;;;;;;;;5.90;46.80;;;;;;4340230;32;20011;-41
2021/11/11 17:56:22;;;;;;;;;;;5.90;46.60;;;;;;4343179;33;20052;-40
2021/11/11 17:58:50;;;;;;;;;;;5.90;46.50;;;;;;4330825;33;20060;-40
2021/11/11 18:01:21;;;;;;;;;;;5.90;46.30;;;;;;4342801;33;20050;-38
2021/11/11 18:03:49;;;;;;;;;;;5.90;46.60;;;;;;4342778;33;20648;-40
2021/11/11 18:08:44;;;;;;;;;;;6.00;46.60;;;;;;4357111;32;19978;-39
2021/11/11 18:11:14;;;;;;;;;;;6.00;46.60;;;;;;4345092;32;20624;-40
2021/11/11 18:13:43;;;;;;;;;;;6.00;46.50;;;;;;4357477;32;20005;-39
2021/11/11 18:16:17;;;;;;;;;;;6.10;46.50;;;;;;4357390;32;19971;-39
2021/11/11 18:18:44;;;;;;;;;;;6.10;46.40;;;;;;4357274;32;20045;-41
2021/11/11 18:21:13;;;;;;;;;;;6.10;46.30;;;;;;4357124;32;20040;-40
2021/11/11 18:23:40;;;;;;;;;;;6.10;46.20;;;;;;4357057;32;20017;-42
2021/11/11 18:26:06;;;;;;;;;;;6.20;46.00;;;;;;4357150;32;19959;-40
2021/11/11 18:28:50;;;;;;;;;;;6.10;46.10;;;;;;4345121;32;19981;-39
2021/11/11 18:31:22;;;;;;;;;;;6.20;46.00;;;;;;4356853;32;19966;-40
2021/11/11 18:34:33;;;;;;;;;;;6.20;46.50;;;;;;4357184;32;20509;-41
2021/11/11 18:36:40;;;;;;;;;;;6.20;46.50;;;;;;4353166;32;19977;-41
2021/11/11 18:39:14;;;;;;;;;;;6.20;46.40;;;;;;4361875;32;20074;-42